sensor_id;sensor_type;location;lat;lon;timestamp;pressure;altitude;pressure_sealevel;temperature;humidity
57000;BME280;42891;50.006;21.964;2023-05-19T00:02:40;51161.00;;;-146.02;79.05
57000;BME280;42891;50.006;21.964;2023-05-19T00:06:46;51152.97;;;-146.02;78.98
57000;BME280;42891;50.006;21.964;2023-05-19T00:10:50;51154.97;;;-146.02;79.36
57000;BME280;42891;50.006;21.964;2023-05-19T00:14:50;51161.00;;;-146.02;79.39
57000;BME280;42891;50.006;21.964;2023-05-19T00:18:51;51161.00;;;-146.02;79.54
57000;BME280;42891;50.006;21.964;2023-05-19T00:22:52;51144.97;;;-146.02;80.02
57000;BME280;42891;50.006;21.964;2023-05-19T00:26:52;51165.00;;;-146.02;79.74
57000;BME280;42891;50.006;21.964;2023-05-19T00:30:53;51152.97;;;-146.02;79.57
57000;BME280;42891;50.006;21.964;2023-05-19T00:34:54;51175.00;;;-146.02;79.55
57000;BME280;42891;50.006;21.964;2023-05-19T00:38:54;51144.97;;;-146.02;79.41
57000;BME280;42891;50.006;21.964;2023-05-19T00:42:55;51142.97;;;-146.02;79.06
57000;BME280;42891;50.006;21.964;2023-05-19T00:46:56;51156.97;;;-146.02;78.90
57000;BME280;42891;50.006;21.964;2023-05-19T00:50:58;51187.03;;;-146.02;78.85
57000;BME280;42891;50.006;21.964;2023-05-19T00:55:03;51167.00;;;-146.02;78.99
57000;BME280;42891;50.006;21.964;2023-05-19T00:59:04;51132.94;;;-146.02;79.17
57000;BME280;42891;50.006;21.964;2023-05-19T01:03:05;51175.00;;;-146.02;79.33
57000;BME280;42891;50.006;21.964;2023-05-19T01:07:11;51136.94;;;-146.02;79.36
57000;BME280;42891;50.006;21.964;2023-05-19T01:11:12;51163.00;;;-146.02;79.13
57000;BME280;42891;50.006;21.964;2023-05-19T01:15:12;51169.00;;;-146.02;79.34
57000;BME280;42891;50.006;21.964;2023-05-19T01:31:51;51144.97;;;-146.02;79.05
57000;BME280;42891;50.006;21.964;2023-05-19T01:35:54;51185.03;;;-146.02;79.01
57000;BME280;42891;50.006;21.964;2023-05-19T01:39:55;51167.00;;;-146.02;79.40
57000;BME280;42891;50.006;21.964;2023-05-19T01:43:57;51140.94;;;-146.02;79.52
57000;BME280;42891;50.006;21.964;2023-05-19T01:48:00;51161.00;;;-146.02;79.42
57000;BME280;42891;50.006;21.964;2023-05-19T01:52:01;51179.03;;;-146.02;79.57
57000;BME280;42891;50.006;21.964;2023-05-19T01:56:02;51142.97;;;-146.02;79.41
57000;BME280;42891;50.006;21.964;2023-05-19T02:00:20;51177.03;;;-146.02;79.08
57000;BME280;42891;50.006;21.964;2023-05-19T02:04:34;51152.97;;;-146.02;79.58
57000;BME280;42891;50.006;21.964;2023-05-19T02:08:45;51122.91;;;-146.02;79.51
57000;BME280;42891;50.006;21.964;2023-05-19T02:12:52;51175.00;;;-146.02;79.68
57000;BME280;42891;50.006;21.964;2023-05-19T02:16:52;51146.97;;;-146.02;79.91
57000;BME280;42891;50.006;21.964;2023-05-19T02:20:55;51173.00;;;-146.02;79.98
57000;BME280;42891;50.006;21.964;2023-05-19T02:24:55;51154.97;;;-146.02;79.80
57000;BME280;42891;50.006;21.964;2023-05-19T02:28:56;51158.97;;;-146.02;79.34
57000;BME280;42891;50.006;21.964;2023-05-19T02:32:56;51181.03;;;-146.02;79.27
57000;BME280;42891;50.006;21.964;2023-05-19T02:36:57;51156.97;;;-146.02;79.54
57000;BME280;42891;50.006;21.964;2023-05-19T02:40:57;51134.94;;;-146.02;79.43
57000;BME280;42891;50.006;21.964;2023-05-19T02:44:58;51177.03;;;-146.02;79.20
57000;BME280;42891;50.006;21.964;2023-05-19T02:48:59;51132.94;;;-146.02;79.42
57000;BME280;42891;50.006;21.964;2023-05-19T02:52:59;51165.00;;;-146.02;79.79
57000;BME280;42891;50.006;21.964;2023-05-19T02:57:00;51213.09;;;-146.02;79.36
57000;BME280;42891;50.006;21.964;2023-05-19T03:01:00;51156.97;;;-146.02;79.69
57000;BME280;42891;50.006;21.964;2023-05-19T03:05:01;51150.97;;;-146.02;79.98
57000;BME280;42891;50.006;21.964;2023-05-19T03:09:02;51156.97;;;-146.02;79.86
57000;BME280;42891;50.006;21.964;2023-05-19T03:13:03;51154.97;;;-146.02;79.75
57000;BME280;42891;50.006;21.964;2023-05-19T03:17:03;51144.97;;;-146.02;79.63
57000;BME280;42891;50.006;21.964;2023-05-19T03:21:06;51169.00;;;-146.02;79.70
57000;BME280;42891;50.006;21.964;2023-05-19T03:25:07;51173.00;;;-146.02;79.79
57000;BME280;42891;50.006;21.964;2023-05-19T03:29:07;51161.00;;;-146.02;80.01
57000;BME280;42891;50.006;21.964;2023-05-19T03:33:08;51163.00;;;-146.02;80.05
57000;BME280;42891;50.006;21.964;2023-05-19T03:37:08;51140.94;;;-146.02;79.51
57000;BME280;42891;50.006;21.964;2023-05-19T03:41:09;51152.97;;;-146.02;79.12
57000;BME280;42891;50.006;21.964;2023-05-19T03:45:10;51158.97;;;-146.02;79.15
57000;BME280;42891;50.006;21.964;2023-05-19T03:49:10;51156.97;;;-146.02;79.38
57000;BME280;42891;50.006;21.964;2023-05-19T03:53:10;51146.97;;;-146.02;79.85
57000;BME280;42891;50.006;21.964;2023-05-19T03:57:12;51163.00;;;-146.02;79.66
57000;BME280;42891;50.006;21.964;2023-05-19T04:01:13;51181.03;;;-146.02;79.65
57000;BME280;42891;50.006;21.964;2023-05-19T04:05:13;51163.00;;;-146.02;79.22
57000;BME280;42891;50.006;21.964;2023-05-19T04:09:14;51177.03;;;-146.02;79.42
57000;BME280;42891;50.006;21.964;2023-05-19T04:13:15;51154.97;;;-146.02;79.51
57000;BME280;42891;50.006;21.964;2023-05-19T04:17:15;51140.94;;;-146.02;79.52
57000;BME280;42891;50.006;21.964;2023-05-19T04:21:15;51187.03;;;-146.02;79.93
57000;BME280;42891;50.006;21.964;2023-05-19T04:25:16;51179.03;;;-146.02;79.98
57000;BME280;42891;50.006;21.964;2023-05-19T04:29:16;51173.00;;;-146.02;79.93
57000;BME280;42891;50.006;21.964;2023-05-19T04:33:17;51197.06;;;-146.02;79.82
57000;BME280;42891;50.006;21.964;2023-05-19T04:37:19;51142.97;;;-146.02;79.52
57000;BME280;42891;50.006;21.964;2023-05-19T04:41:19;51197.06;;;-146.02;79.36
57000;BME280;42891;50.006;21.964;2023-05-19T04:45:20;51167.00;;;-146.02;78.81
57000;BME280;42891;50.006;21.964;2023-05-19T04:49:22;51152.97;;;-146.02;79.39
57000;BME280;42891;50.006;21.964;2023-05-19T04:53:23;51185.03;;;-146.02;78.62
57000;BME280;42891;50.006;21.964;2023-05-19T04:57:24;51165.00;;;-146.02;78.57
57000;BME280;42891;50.006;21.964;2023-05-19T05:01:25;51163.00;;;-146.02;79.06
57000;BME280;42891;50.006;21.964;2023-05-19T05:05:25;51158.97;;;-146.02;79.36
57000;BME280;42891;50.006;21.964;2023-05-19T05:09:26;51136.94;;;-146.02;78.80
57000;BME280;42891;50.006;21.964;2023-05-19T05:13:27;51165.00;;;-146.02;79.14
57000;BME280;42891;50.006;21.964;2023-05-19T05:17:28;51199.06;;;-146.02;78.09
57000;BME280;42891;50.006;21.964;2023-05-19T05:21:28;51152.97;;;-146.02;78.68
57000;BME280;42891;50.006;21.964;2023-05-19T05:25:29;51154.97;;;-146.02;78.87
57000;BME280;42891;50.006;21.964;2023-05-19T05:29:29;51140.94;;;-146.02;78.79
57000;BME280;42891;50.006;21.964;2023-05-19T05:33:30;51167.00;;;-146.02;78.95
57000;BME280;42891;50.006;21.964;2023-05-19T05:37:30;51167.00;;;-146.02;78.55
57000;BME280;42891;50.006;21.964;2023-05-19T05:41:31;51167.00;;;-146.02;78.59
57000;BME280;42891;50.006;21.964;2023-05-19T05:45:34;51161.00;;;-146.02;79.01
57000;BME280;42891;50.006;21.964;2023-05-19T05:49:35;51134.94;;;-146.02;78.81
57000;BME280;42891;50.006;21.964;2023-05-19T05:53:40;51197.06;;;-146.02;78.72
57000;BME280;42891;50.006;21.964;2023-05-19T05:57:42;51154.97;;;-146.02;78.41
57000;BME280;42891;50.006;21.964;2023-05-19T06:01:42;51185.03;;;-146.02;78.34
57000;BME280;42891;50.006;21.964;2023-05-19T06:05:42;51169.00;;;-146.02;78.25
57000;BME280;42891;50.006;21.964;2023-05-19T06:09:43;51169.00;;;-146.02;78.54
57000;BME280;42891;50.006;21.964;2023-05-19T06:13:43;51148.97;;;-146.02;78.30
57000;BME280;42891;50.006;21.964;2023-05-19T06:17:43;51187.03;;;-146.02;78.60
57000;BME280;42891;50.006;21.964;2023-05-19T06:21:44;51156.97;;;-146.02;78.52
57000;BME280;42891;50.006;21.964;2023-05-19T06:25:45;51205.06;;;-146.02;77.95
57000;BME280;42891;50.006;21.964;2023-05-19T06:29:45;51156.97;;;-146.02;77.84
57000;BME280;42891;50.006;21.964;2023-05-19T06:33:45;51175.00;;;-146.02;77.38
57000;BME280;42891;50.006;21.964;2023-05-19T06:37:46;51144.97;;;-146.02;77.67
57000;BME280;42891;50.006;21.964;2023-05-19T06:41:46;51183.03;;;-146.02;77.87
57000;BME280;42891;50.006;21.964;2023-05-19T06:45:46;51189.03;;;-146.02;77.14
57000;BME280;42891;50.006;21.964;2023-05-19T06:49:47;51171.00;;;-146.02;77.16
57000;BME280;42891;50.006;21.964;2023-05-19T06:53:54;51142.97;;;-146.02;76.34
57000;BME280;42891;50.006;21.964;2023-05-19T06:57:54;51146.97;;;-146.02;76.83
57000;BME280;42891;50.006;21.964;2023-05-19T07:01:55;51152.97;;;-146.02;76.86
57000;BME280;42891;50.006;21.964;2023-05-19T07:05:55;51173.00;;;-146.02;76.92
57000;BME280;42891;50.006;21.964;2023-05-19T07:09:56;51148.97;;;-146.02;76.98
57000;BME280;42891;50.006;21.964;2023-05-19T07:13:56;51205.06;;;-146.02;76.28
57000;BME280;42891;50.006;21.964;2023-05-19T07:17:57;51161.00;;;-146.02;76.77
57000;BME280;42891;50.006;21.964;2023-05-19T07:21:57;51191.03;;;-146.02;76.76
57000;BME280;42891;50.006;21.964;2023-05-19T07:25:58;51144.97;;;-146.02;76.93
57000;BME280;42891;50.006;21.964;2023-05-19T07:29:58;51148.97;;;-146.02;76.51
57000;BME280;42891;50.006;21.964;2023-05-19T07:33:59;51161.00;;;-146.02;76.32
57000;BME280;42891;50.006;21.964;2023-05-19T07:37:59;51150.97;;;-146.02;76.60
57000;BME280;42891;50.006;21.964;2023-05-19T07:42:00;51128.94;;;-146.02;75.85
57000;BME280;42891;50.006;21.964;2023-05-19T07:46:01;51146.97;;;-146.02;75.65
57000;BME280;42891;50.006;21.964;2023-05-19T07:50:01;51165.00;;;-146.02;75.42
57000;BME280;42891;50.006;21.964;2023-05-19T07:54:01;51128.94;;;-146.02;75.88
57000;BME280;42891;50.006;21.964;2023-05-19T07:58:02;51163.00;;;-146.02;75.71
57000;BME280;42891;50.006;21.964;2023-05-19T08:02:02;51169.00;;;-146.02;76.28
57000;BME280;42891;50.006;21.964;2023-05-19T08:06:03;51140.94;;;-146.02;76.51
57000;BME280;42891;50.006;21.964;2023-05-19T08:10:03;51185.03;;;-146.02;76.20
57000;BME280;42891;50.006;21.964;2023-05-19T08:14:04;51154.97;;;-146.02;76.64
57000;BME280;42891;50.006;21.964;2023-05-19T08:18:04;51163.00;;;-146.02;75.88
57000;BME280;42891;50.006;21.964;2023-05-19T08:22:05;51169.00;;;-146.02;75.97
57000;BME280;42891;50.006;21.964;2023-05-19T08:26:05;51120.91;;;-146.02;76.26
57000;BME280;42891;50.006;21.964;2023-05-19T08:30:06;51152.97;;;-146.02;76.31
57000;BME280;42891;50.006;21.964;2023-05-19T08:34:07;51134.94;;;-146.02;75.96
57000;BME280;42891;50.006;21.964;2023-05-19T08:38:07;51177.03;;;-146.02;76.17
57000;BME280;42891;50.006;21.964;2023-05-19T08:42:07;51146.97;;;-146.02;75.31
57000;BME280;42891;50.006;21.964;2023-05-19T08:46:10;51167.00;;;-146.02;76.03
57000;BME280;42891;50.006;21.964;2023-05-19T08:50:16;51177.03;;;-146.02;74.85
57000;BME280;42891;50.006;21.964;2023-05-19T08:54:22;51140.94;;;-146.02;75.21
57000;BME280;42891;50.006;21.964;2023-05-19T08:58:25;51136.94;;;-146.02;75.05
57000;BME280;42891;50.006;21.964;2023-05-19T09:02:27;51156.97;;;-146.02;75.28
57000;BME280;42891;50.006;21.964;2023-05-19T09:06:28;51134.94;;;-146.02;75.61
57000;BME280;42891;50.006;21.964;2023-05-19T09:10:31;51150.97;;;-146.02;76.19
57000;BME280;42891;50.006;21.964;2023-05-19T09:14:31;51142.97;;;-146.02;75.30
57000;BME280;42891;50.006;21.964;2023-05-19T09:18:32;51120.91;;;-146.02;75.50
57000;BME280;42891;50.006;21.964;2023-05-19T09:22:32;51177.03;;;-146.02;76.35
57000;BME280;42891;50.006;21.964;2023-05-19T09:30:37;51165.00;;;-146.02;77.39
57000;BME280;42891;50.006;21.964;2023-05-19T09:34:41;51161.00;;;-146.02;77.24
57000;BME280;42891;50.006;21.964;2023-05-19T09:38:44;51126.94;;;-146.02;76.61
57000;BME280;42891;50.006;21.964;2023-05-19T09:42:45;51163.00;;;-146.02;75.15
57000;BME280;42891;50.006;21.964;2023-05-19T09:46:49;51146.97;;;-146.02;76.41
57000;BME280;42891;50.006;21.964;2023-05-19T09:50:50;51144.97;;;-146.02;76.06
57000;BME280;42891;50.006;21.964;2023-05-19T09:54:52;51171.00;;;-146.02;75.72
57000;BME280;42891;50.006;21.964;2023-05-19T09:58:54;51154.97;;;-146.02;75.04
57000;BME280;42891;50.006;21.964;2023-05-19T10:02:54;51124.91;;;-146.02;74.28
57000;BME280;42891;50.006;21.964;2023-05-19T10:06:57;51173.00;;;-146.02;75.23
57000;BME280;42891;50.006;21.964;2023-05-19T10:10:58;51128.94;;;-146.02;75.64
57000;BME280;42891;50.006;21.964;2023-05-19T10:14:59;51122.91;;;-146.02;75.41
57000;BME280;42891;50.006;21.964;2023-05-19T10:19:01;51161.00;;;-146.02;74.96
57000;BME280;42891;50.006;21.964;2023-05-19T10:23:02;51187.03;;;-146.02;74.58
57000;BME280;42891;50.006;21.964;2023-05-19T10:27:06;51140.94;;;-146.02;74.73
57000;BME280;42891;50.006;21.964;2023-05-19T10:31:09;51148.97;;;-146.02;75.14
57000;BME280;42891;50.006;21.964;2023-05-19T10:35:35;51140.94;;;-146.02;75.53
57000;BME280;42891;50.006;21.964;2023-05-19T10:39:41;51158.97;;;-146.02;76.16
57000;BME280;42891;50.006;21.964;2023-05-19T10:47:43;51171.00;;;-146.02;74.89
57000;BME280;42891;50.006;21.964;2023-05-19T10:51:44;51144.97;;;-146.02;75.38
57000;BME280;42891;50.006;21.964;2023-05-19T10:55:54;51128.94;;;-146.02;75.02
57000;BME280;42891;50.006;21.964;2023-05-19T10:59:55;51134.94;;;-146.02;75.37
57000;BME280;42891;50.006;21.964;2023-05-19T11:03:56;51136.94;;;-146.02;74.56
57000;BME280;42891;50.006;21.964;2023-05-19T11:07:58;51122.91;;;-146.02;74.65
57000;BME280;42891;50.006;21.964;2023-05-19T11:12:05;51144.97;;;-146.02;74.86
57000;BME280;42891;50.006;21.964;2023-05-19T11:16:07;51140.94;;;-146.02;74.66
57000;BME280;42891;50.006;21.964;2023-05-19T11:20:08;51158.97;;;-146.02;74.55
57000;BME280;42891;50.006;21.964;2023-05-19T11:28:46;51150.97;;;-146.02;74.09
57000;BME280;42891;50.006;21.964;2023-05-19T11:32:47;51144.97;;;-146.02;73.19
57000;BME280;42891;50.006;21.964;2023-05-19T11:36:47;51177.03;;;-146.02;71.73
57000;BME280;42891;50.006;21.964;2023-05-19T11:40:48;51144.97;;;-146.02;72.37
57000;BME280;42891;50.006;21.964;2023-05-19T11:44:54;51100.88;;;-146.02;72.77
57000;BME280;42891;50.006;21.964;2023-05-19T11:48:54;51122.91;;;-146.02;72.34
57000;BME280;42891;50.006;21.964;2023-05-19T11:52:55;51144.97;;;-146.02;72.84
57000;BME280;42891;50.006;21.964;2023-05-19T11:56:59;51114.91;;;-146.02;72.95
57000;BME280;42891;50.006;21.964;2023-05-19T12:01:03;51152.97;;;-146.02;73.39
57000;BME280;42891;50.006;21.964;2023-05-19T12:05:04;51122.91;;;-146.02;73.98
57000;BME280;42891;50.006;21.964;2023-05-19T12:09:04;51124.91;;;-146.02;73.19
57000;BME280;42891;50.006;21.964;2023-05-19T12:13:05;51154.97;;;-146.02;73.29
57000;BME280;42891;50.006;21.964;2023-05-19T12:17:13;51130.94;;;-146.02;71.65
57000;BME280;42891;50.006;21.964;2023-05-19T12:21:14;51104.88;;;-146.02;72.31
57000;BME280;42891;50.006;21.964;2023-05-19T12:25:15;51114.91;;;-146.02;71.66
57000;BME280;42891;50.006;21.964;2023-05-19T12:29:16;51084.84;;;-146.02;71.48
57000;BME280;42891;50.006;21.964;2023-05-19T12:33:17;51112.91;;;-146.02;71.41
57000;BME280;42891;50.006;21.964;2023-05-19T12:37:18;51138.94;;;-146.02;71.28
57000;BME280;42891;50.006;21.964;2023-05-19T12:41:18;51100.88;;;-146.02;71.15
57000;BME280;42891;50.006;21.964;2023-05-19T12:45:20;51108.88;;;-146.02;71.33
57000;BME280;42891;50.006;21.964;2023-05-19T12:49:22;51128.94;;;-146.02;71.12
57000;BME280;42891;50.006;21.964;2023-05-19T12:53:25;51098.88;;;-146.02;69.93
57000;BME280;42891;50.006;21.964;2023-05-19T12:57:28;51136.94;;;-146.02;69.55
57000;BME280;42891;50.006;21.964;2023-05-19T13:01:35;51130.94;;;-146.02;70.63
57000;BME280;42891;50.006;21.964;2023-05-19T13:05:39;51136.94;;;-146.02;70.35
57000;BME280;42891;50.006;21.964;2023-05-19T13:09:42;51096.88;;;-146.02;71.23
57000;BME280;42891;50.006;21.964;2023-05-19T13:13:43;51110.91;;;-146.02;71.22
57000;BME280;42891;50.006;21.964;2023-05-19T13:17:44;51120.91;;;-146.02;71.41
57000;BME280;42891;50.006;21.964;2023-05-19T13:21:45;51146.97;;;-146.02;70.97
57000;BME280;42891;50.006;21.964;2023-05-19T13:25:51;51098.88;;;-146.02;70.86
57000;BME280;42891;50.006;21.964;2023-05-19T13:29:51;51124.91;;;-146.02;70.78
57000;BME280;42891;50.006;21.964;2023-05-19T13:33:52;51112.91;;;-146.02;70.62
57000;BME280;42891;50.006;21.964;2023-05-19T13:37:52;51124.91;;;-146.02;71.46
57000;BME280;42891;50.006;21.964;2023-05-19T13:41:53;51122.91;;;-146.02;71.80
57000;BME280;42891;50.006;21.964;2023-05-19T13:45:53;51148.97;;;-146.02;72.34
57000;BME280;42891;50.006;21.964;2023-05-19T13:49:53;51128.94;;;-146.02;73.08
57000;BME280;42891;50.006;21.964;2023-05-19T13:53:54;51142.97;;;-146.02;72.38
57000;BME280;42891;50.006;21.964;2023-05-19T13:57:54;51138.94;;;-146.02;72.22
57000;BME280;42891;50.006;21.964;2023-05-19T14:01:54;51128.94;;;-146.02;72.89
57000;BME280;42891;50.006;21.964;2023-05-19T14:05:54;51146.97;;;-146.02;71.96
57000;BME280;42891;50.006;21.964;2023-05-19T14:09:55;51130.94;;;-146.02;72.71
57000;BME280;42891;50.006;21.964;2023-05-19T14:13:56;51154.97;;;-146.02;72.66
57000;BME280;42891;50.006;21.964;2023-05-19T14:17:56;51163.00;;;-146.02;72.61
57000;BME280;42891;50.006;21.964;2023-05-19T14:21:57;51130.94;;;-146.02;72.55
57000;BME280;42891;50.006;21.964;2023-05-19T14:25:58;51181.03;;;-146.02;72.47
57000;BME280;42891;50.006;21.964;2023-05-19T14:29:59;51175.00;;;-146.02;73.17
57000;BME280;42891;50.006;21.964;2023-05-19T14:33:59;51154.97;;;-146.02;73.21
57000;BME280;42891;50.006;21.964;2023-05-19T14:37:59;51146.97;;;-146.02;73.45
57000;BME280;42891;50.006;21.964;2023-05-19T14:41:59;51158.97;;;-146.02;73.17
57000;BME280;42891;50.006;21.964;2023-05-19T14:46:00;51138.94;;;-146.02;72.99
57000;BME280;42891;50.006;21.964;2023-05-19T14:50:00;51082.84;;;-146.02;72.91
57000;BME280;42891;50.006;21.964;2023-05-19T14:54:01;51144.97;;;-146.02;73.34
57000;BME280;42891;50.006;21.964;2023-05-19T14:58:01;51130.94;;;-146.02;73.77
57000;BME280;42891;50.006;21.964;2023-05-19T15:02:01;51120.91;;;-146.02;73.59
57000;BME280;42891;50.006;21.964;2023-05-19T15:06:02;51108.88;;;-146.02;74.21
57000;BME280;42891;50.006;21.964;2023-05-19T15:10:03;51152.97;;;-146.02;73.38
57000;BME280;42891;50.006;21.964;2023-05-19T15:14:03;51100.88;;;-146.02;73.79
57000;BME280;42891;50.006;21.964;2023-05-19T15:18:03;51106.88;;;-146.02;74.45
57000;BME280;42891;50.006;21.964;2023-05-19T15:22:04;51116.91;;;-146.02;74.31
57000;BME280;42891;50.006;21.964;2023-05-19T15:26:04;51092.84;;;-146.02;73.89
57000;BME280;42891;50.006;21.964;2023-05-19T15:30:05;51136.94;;;-146.02;73.59
57000;BME280;42891;50.006;21.964;2023-05-19T15:34:05;51108.88;;;-146.02;73.84
57000;BME280;42891;50.006;21.964;2023-05-19T15:38:06;51112.91;;;-146.02;74.47
57000;BME280;42891;50.006;21.964;2023-05-19T15:42:06;51116.91;;;-146.02;74.60
57000;BME280;42891;50.006;21.964;2023-05-19T15:46:07;51124.91;;;-146.02;74.00
57000;BME280;42891;50.006;21.964;2023-05-19T15:50:07;51158.97;;;-146.02;74.22
57000;BME280;42891;50.006;21.964;2023-05-19T15:54:08;51154.97;;;-146.02;74.23
57000;BME280;42891;50.006;21.964;2023-05-19T15:58:08;51167.00;;;-146.02;74.65
57000;BME280;42891;50.006;21.964;2023-05-19T16:02:09;51128.94;;;-146.02;74.65
57000;BME280;42891;50.006;21.964;2023-05-19T16:06:10;51148.97;;;-146.02;74.60
57000;BME280;42891;50.006;21.964;2023-05-19T16:10:10;51169.00;;;-146.02;74.93
57000;BME280;42891;50.006;21.964;2023-05-19T16:14:11;51122.91;;;-146.02;75.00
57000;BME280;42891;50.006;21.964;2023-05-19T16:18:11;51118.91;;;-146.02;74.48
57000;BME280;42891;50.006;21.964;2023-05-19T16:22:11;51142.97;;;-146.02;74.55
57000;BME280;42891;50.006;21.964;2023-05-19T16:26:12;51154.97;;;-146.02;75.05
57000;BME280;42891;50.006;21.964;2023-05-19T16:30:12;51144.97;;;-146.02;75.42
57000;BME280;42891;50.006;21.964;2023-05-19T16:34:13;51118.91;;;-146.02;75.55
57000;BME280;42891;50.006;21.964;2023-05-19T16:38:13;51150.97;;;-146.02;75.42
57000;BME280;42891;50.006;21.964;2023-05-19T16:42:13;51116.91;;;-146.02;75.37
57000;BME280;42891;50.006;21.964;2023-05-19T16:46:14;51148.97;;;-146.02;75.64
57000;BME280;42891;50.006;21.964;2023-05-19T16:50:14;51138.94;;;-146.02;75.74
57000;BME280;42891;50.006;21.964;2023-05-19T16:54:14;51098.88;;;-146.02;75.92
57000;BME280;42891;50.006;21.964;2023-05-19T16:58:15;51136.94;;;-146.02;76.25
57000;BME280;42891;50.006;21.964;2023-05-19T17:02:15;51130.94;;;-146.02;75.93
57000;BME280;42891;50.006;21.964;2023-05-19T17:06:15;51152.97;;;-146.02;76.24
57000;BME280;42891;50.006;21.964;2023-05-19T17:10:16;51122.91;;;-146.02;76.25
57000;BME280;42891;50.006;21.964;2023-05-19T17:14:16;51171.00;;;-146.02;76.19
57000;BME280;42891;50.006;21.964;2023-05-19T17:18:20;51150.97;;;-146.02;76.37
57000;BME280;42891;50.006;21.964;2023-05-19T17:22:20;51120.91;;;-146.02;76.94
57000;BME280;42891;50.006;21.964;2023-05-19T17:26:20;51118.91;;;-146.02;76.79
57000;BME280;42891;50.006;21.964;2023-05-19T17:30:21;51165.00;;;-146.02;76.77
57000;BME280;42891;50.006;21.964;2023-05-19T17:34:21;51146.97;;;-146.02;76.81
57000;BME280;42891;50.006;21.964;2023-05-19T17:38:22;51132.94;;;-146.02;76.86
57000;BME280;42891;50.006;21.964;2023-05-19T17:42:22;51148.97;;;-146.02;76.29
57000;BME280;42891;50.006;21.964;2023-05-19T17:46:22;51144.97;;;-146.02;76.40
57000;BME280;42891;50.006;21.964;2023-05-19T17:50:22;51154.97;;;-146.02;76.16
57000;BME280;42891;50.006;21.964;2023-05-19T17:54:23;51165.00;;;-146.02;76.61
57000;BME280;42891;50.006;21.964;2023-05-19T17:58:26;51136.94;;;-146.02;77.05
57000;BME280;42891;50.006;21.964;2023-05-19T18:02:27;51144.97;;;-146.02;76.71
57000;BME280;42891;50.006;21.964;2023-05-19T18:06:28;51152.97;;;-146.02;77.27
57000;BME280;42891;50.006;21.964;2023-05-19T18:10:28;51138.94;;;-146.02;77.31
57000;BME280;42891;50.006;21.964;2023-05-19T18:14:30;51197.06;;;-146.02;77.35
57000;BME280;42891;50.006;21.964;2023-05-19T18:18:30;51146.97;;;-146.02;77.16
57000;BME280;42891;50.006;21.964;2023-05-19T18:22:32;51148.97;;;-146.02;77.54
57000;BME280;42891;50.006;21.964;2023-05-19T18:26:33;51144.97;;;-146.02;77.87
57000;BME280;42891;50.006;21.964;2023-05-19T18:30:33;51173.00;;;-146.02;78.21
57000;BME280;42891;50.006;21.964;2023-05-19T18:34:33;51096.88;;;-146.02;78.52
57000;BME280;42891;50.006;21.964;2023-05-19T18:38:34;51138.94;;;-146.02;78.52
57000;BME280;42891;50.006;21.964;2023-05-19T18:42:34;51118.91;;;-146.02;78.26
57000;BME280;42891;50.006;21.964;2023-05-19T18:46:34;51130.94;;;-146.02;78.74
57000;BME280;42891;50.006;21.964;2023-05-19T18:50:35;51128.94;;;-146.02;78.71
57000;BME280;42891;50.006;21.964;2023-05-19T18:54:36;51146.97;;;-146.02;78.84
57000;BME280;42891;50.006;21.964;2023-05-19T18:58:37;51152.97;;;-146.02;79.17
57000;BME280;42891;50.006;21.964;2023-05-19T19:02:37;51150.97;;;-146.02;79.68
57000;BME280;42891;50.006;21.964;2023-05-19T19:06:37;51126.94;;;-146.02;80.12
57000;BME280;42891;50.006;21.964;2023-05-19T19:10:38;51161.00;;;-146.02;80.39
57000;BME280;42891;50.006;21.964;2023-05-19T19:14:39;51132.94;;;-146.02;80.75
57000;BME280;42891;50.006;21.964;2023-05-19T19:18:40;51161.00;;;-146.02;81.26
57000;BME280;42891;50.006;21.964;2023-05-19T19:22:40;51158.97;;;-146.02;81.37
57000;BME280;42891;50.006;21.964;2023-05-19T19:26:40;51112.91;;;-146.02;81.28
57000;BME280;42891;50.006;21.964;2023-05-19T19:30:41;51154.97;;;-146.02;80.90
57000;BME280;42891;50.006;21.964;2023-05-19T19:34:41;51122.91;;;-146.02;81.01
57000;BME280;42891;50.006;21.964;2023-05-19T19:38:41;51124.91;;;-146.02;80.82
57000;BME280;42891;50.006;21.964;2023-05-19T19:42:42;51150.97;;;-146.02;80.66
57000;BME280;42891;50.006;21.964;2023-05-19T19:46:43;51167.00;;;-146.02;80.91
57000;BME280;42891;50.006;21.964;2023-05-19T19:50:43;51161.00;;;-146.02;80.92
57000;BME280;42891;50.006;21.964;2023-05-19T19:54:43;51146.97;;;-146.02;81.06
57000;BME280;42891;50.006;21.964;2023-05-19T19:58:44;51126.94;;;-146.02;80.85
57000;BME280;42891;50.006;21.964;2023-05-19T20:02:44;51169.00;;;-146.02;80.98
57000;BME280;42891;50.006;21.964;2023-05-19T20:06:45;51128.94;;;-146.02;81.12
57000;BME280;42891;50.006;21.964;2023-05-19T20:10:48;51114.91;;;-146.02;81.26
57000;BME280;42891;50.006;21.964;2023-05-19T20:14:52;51163.00;;;-146.02;81.44
57000;BME280;42891;50.006;21.964;2023-05-19T20:18:52;51161.00;;;-146.02;81.25
57000;BME280;42891;50.006;21.964;2023-05-19T20:22:52;51183.03;;;-146.02;81.45
57000;BME280;42891;50.006;21.964;2023-05-19T20:26:53;51138.94;;;-146.02;81.60
57000;BME280;42891;50.006;21.964;2023-05-19T20:30:53;51154.97;;;-146.02;81.63
57000;BME280;42891;50.006;21.964;2023-05-19T20:34:53;51136.94;;;-146.02;81.99
57000;BME280;42891;50.006;21.964;2023-05-19T20:38:54;51179.03;;;-146.02;82.27
57000;BME280;42891;50.006;21.964;2023-05-19T20:42:54;51152.97;;;-146.02;82.05
57000;BME280;42891;50.006;21.964;2023-05-19T20:46:55;51132.94;;;-146.02;82.10
57000;BME280;42891;50.006;21.964;2023-05-19T20:50:56;51165.00;;;-146.02;82.33
57000;BME280;42891;50.006;21.964;2023-05-19T20:54:57;51136.94;;;-146.02;82.33